createdAt,value
2018-03-08T00:01:26.521Z,3.70
2018-03-08T00:03:54.905Z,3.70
2018-03-08T00:06:24.076Z,3.60
2018-03-08T00:08:52.484Z,3.60
2018-03-08T00:11:21.669Z,3.60
2018-03-08T00:13:50.836Z,3.60
2018-03-08T00:16:19.243Z,3.60
2018-03-08T00:18:48.449Z,3.60
2018-03-08T00:21:17.609Z,3.60
2018-03-08T00:23:46.001Z,3.70
2018-03-08T00:26:14.409Z,3.70
2018-03-08T00:28:42.830Z,3.60
2018-03-08T00:31:11.223Z,3.60
2018-03-08T00:33:39.618Z,3.60
2018-03-08T00:36:08.022Z,3.60
2018-03-08T00:38:36.451Z,3.50
2018-03-08T00:41:04.838Z,3.60
2018-03-08T00:43:33.224Z,3.60
2018-03-08T00:46:01.630Z,3.60
2018-03-08T00:48:30.021Z,3.60
2018-03-08T00:50:59.189Z,3.50
2018-03-08T00:53:28.350Z,3.50
2018-03-08T00:55:56.761Z,3.50
2018-03-08T00:58:25.913Z,3.50
2018-03-08T01:00:54.122Z,3.50
2018-03-08T01:03:22.527Z,3.50
2018-03-08T01:05:50.921Z,3.50
2018-03-08T01:08:19.320Z,3.40
2018-03-08T01:10:47.722Z,3.50
2018-03-08T01:13:16.130Z,3.40
2018-03-08T01:15:45.299Z,3.40
2018-03-08T01:18:13.691Z,3.40
2018-03-08T01:20:42.859Z,3.40
2018-03-08T01:23:11.260Z,3.40
2018-03-08T01:25:40.418Z,3.40
2018-03-08T01:28:08.839Z,3.40
2018-03-08T01:30:37.989Z,3.40
2018-03-08T01:33:06.380Z,3.30
2018-03-08T01:35:34.776Z,3.30
2018-03-08T01:38:03.178Z,3.40
2018-03-08T01:40:32.350Z,3.40
2018-03-08T01:43:00.748Z,3.40
2018-03-08T01:45:30.083Z,3.40
2018-03-08T01:47:58.731Z,3.50
2018-03-08T01:50:27.918Z,3.40
2018-03-08T01:52:58.703Z,3.30
2018-03-08T01:55:27.179Z,3.40
2018-03-08T01:57:55.781Z,3.30
2018-03-08T02:00:24.171Z,3.30
2018-03-08T02:02:53.555Z,3.40
2018-03-08T02:05:21.959Z,3.30
2018-03-08T02:07:51.142Z,3.40
2018-03-08T02:10:19.553Z,3.40
2018-03-08T02:12:49.671Z,3.40
2018-03-08T02:15:18.839Z,3.50
2018-03-08T02:17:47.220Z,3.40
2018-03-08T02:20:15.616Z,3.40
2018-03-08T02:22:44.792Z,3.40
2018-03-08T02:25:13.211Z,3.40
2018-03-08T02:27:41.587Z,3.50
2018-03-08T02:30:09.974Z,3.40
2018-03-08T02:32:38.393Z,3.30
2018-03-08T02:35:06.602Z,3.30
2018-03-08T02:37:35.004Z,3.30
2018-03-08T02:40:03.451Z,3.30
2018-03-08T02:42:31.841Z,3.30
2018-03-08T02:45:00.242Z,3.30
2018-03-08T02:47:28.930Z,3.30
2018-03-08T02:49:57.699Z,3.30
2018-03-08T02:52:26.119Z,3.30
2018-03-08T02:54:54.500Z,3.20
2018-03-08T02:57:23.660Z,3.10
2018-03-08T02:59:52.048Z,3.10
2018-03-08T03:02:20.674Z,3.20
2018-03-08T03:04:49.068Z,3.20
2018-03-08T03:07:17.462Z,3.20
2018-03-08T03:09:45.874Z,3.20
2018-03-08T03:12:14.266Z,3.30
2018-03-08T03:14:43.426Z,3.20
2018-03-08T03:17:11.842Z,3.20
2018-03-08T03:19:41.006Z,3.20
2018-03-08T03:22:09.398Z,3.20
2018-03-08T03:24:37.789Z,3.30
2018-03-08T03:27:06.201Z,3.20
2018-03-08T03:29:34.585Z,3.20
2018-03-08T03:32:02.972Z,3.20
2018-03-08T03:34:31.372Z,3.30
2018-03-08T03:37:00.517Z,3.20
2018-03-08T03:39:28.926Z,3.30
2018-03-08T03:41:57.396Z,3.20
2018-03-08T03:44:25.800Z,3.30
2018-03-08T03:46:54.225Z,3.20
2018-03-08T03:49:22.627Z,3.20
2018-03-08T03:51:51.025Z,3.20
2018-03-08T03:54:19.417Z,3.10
2018-03-08T03:56:47.830Z,3.20
2018-03-08T03:59:17.001Z,3.10
2018-03-08T04:01:45.416Z,3.10
2018-03-08T04:04:13.804Z,3.20
2018-03-08T04:06:42.195Z,3.20
2018-03-08T04:09:10.594Z,3.20
2018-03-08T04:11:38.995Z,3.20
2018-03-08T04:14:07.404Z,3.20
2018-03-08T04:16:35.793Z,3.20
2018-03-08T04:19:04.193Z,3.20
2018-03-08T04:21:32.597Z,3.10
2018-03-08T04:24:00.995Z,3.10
2018-03-08T04:26:30.149Z,3.10
2018-03-08T04:28:59.507Z,3.10
2018-03-08T04:31:29.728Z,3.10
2018-03-08T04:33:58.723Z,3.00
2018-03-08T04:36:27.443Z,3.10
2018-03-08T04:38:55.820Z,3.10
2018-03-08T04:41:24.214Z,3.10
2018-03-08T04:43:52.622Z,3.10
2018-03-08T04:46:21.785Z,3.10
2018-03-08T04:48:50.198Z,3.10
2018-03-08T04:51:19.339Z,3.00
2018-03-08T04:53:47.730Z,3.00
2018-03-08T04:56:16.135Z,3.10
2018-03-08T04:58:45.296Z,3.00
2018-03-08T05:01:13.708Z,3.00
2018-03-08T05:03:42.110Z,3.00
2018-03-08T05:06:11.267Z,3.00
2018-03-08T05:08:39.654Z,3.00
2018-03-08T05:11:08.052Z,3.10
2018-03-08T05:13:37.205Z,3.00
2018-03-08T05:16:05.606Z,3.00
2018-03-08T05:18:34.008Z,3.00
2018-03-08T05:21:03.161Z,3.00
2018-03-08T05:23:31.577Z,3.00
2018-03-08T05:26:00.728Z,3.00
2018-03-08T05:28:29.838Z,3.00
2018-03-08T05:30:58.884Z,3.00
2018-03-08T05:33:27.410Z,2.90
2018-03-08T05:35:55.807Z,3.00
2018-03-08T05:38:24.954Z,2.90
2018-03-08T05:40:53.380Z,2.90
2018-03-08T05:43:22.530Z,2.90
2018-03-08T05:45:50.907Z,2.90
2018-03-08T05:48:19.318Z,2.90
2018-03-08T05:50:47.725Z,2.90
2018-03-08T05:53:16.903Z,2.90
2018-03-08T05:55:46.053Z,2.90
2018-03-08T05:58:14.457Z,2.80
2018-03-08T06:00:42.858Z,2.80
2018-03-08T06:03:12.050Z,2.70
2018-03-08T06:05:41.213Z,2.80
2018-03-08T06:08:09.607Z,2.70
2018-03-08T06:10:38.017Z,2.70
2018-03-08T06:13:06.836Z,2.70
2018-03-08T06:15:35.238Z,2.70
2018-03-08T06:18:03.628Z,2.70
2018-03-08T06:20:32.032Z,2.60
2018-03-08T06:23:01.190Z,2.60
2018-03-08T06:25:29.597Z,2.60
2018-03-08T06:27:59.446Z,2.70
2018-03-08T06:30:28.315Z,2.60
2018-03-08T06:32:56.729Z,2.60
2018-03-08T06:35:25.116Z,2.50
2018-03-08T06:37:53.507Z,2.40
2018-03-08T06:40:21.910Z,2.40
2018-03-08T06:42:51.063Z,2.30
2018-03-08T06:45:19.475Z,2.30
2018-03-08T06:47:47.864Z,2.30
2018-03-08T06:50:17.028Z,2.40
2018-03-08T06:52:45.425Z,2.40
2018-03-08T06:55:13.826Z,2.60
2018-03-08T06:57:42.977Z,2.90
2018-03-08T07:00:11.045Z,2.90
2018-03-08T07:02:39.441Z,2.90
2018-03-08T07:05:07.850Z,3.00
2018-03-08T07:07:36.250Z,3.20
2018-03-08T07:10:03.994Z,3.30
2018-03-08T07:12:32.395Z,3.40
2018-03-08T07:15:00.800Z,3.40
2018-03-08T07:17:30.058Z,3.30
2018-03-08T07:19:58.457Z,3.30
2018-03-08T07:22:26.849Z,3.20
2018-03-08T07:24:55.445Z,3.10
2018-03-08T07:27:23.834Z,3.20
2018-03-08T07:29:53.004Z,3.20
2018-03-08T07:32:21.397Z,3.20
2018-03-08T07:34:49.803Z,3.40
2018-03-08T07:37:18.215Z,3.40
2018-03-08T07:39:46.601Z,3.40
2018-03-08T07:42:15.012Z,3.40
2018-03-08T07:44:43.418Z,3.60
2018-03-08T07:47:11.800Z,3.70
2018-03-08T07:49:40.210Z,3.80
2018-03-08T07:52:08.677Z,3.90
2018-03-08T07:54:37.233Z,4.10
2018-03-08T07:57:05.637Z,4.00
2018-03-08T07:59:34.049Z,4.00
2018-03-08T08:02:02.451Z,4.00
2018-03-08T08:04:42.892Z,4.00
2018-03-08T08:07:22.461Z,4.00
2018-03-08T08:09:51.648Z,4.10
2018-03-08T08:12:20.808Z,4.10
2018-03-08T08:14:48.876Z,4.10
2018-03-08T08:17:17.276Z,4.30
2018-03-08T08:19:45.689Z,4.20
2018-03-08T08:22:14.106Z,4.30
2018-03-08T08:24:42.500Z,4.30
2018-03-08T08:27:10.904Z,4.60
2018-03-08T08:29:40.057Z,4.80
2018-03-08T08:32:08.458Z,4.80
2018-03-08T08:34:36.852Z,4.80
2018-03-08T08:37:06.026Z,5.00
2018-03-08T08:39:34.403Z,4.90
2018-03-08T08:42:02.799Z,4.90
2018-03-08T08:44:31.194Z,4.80
2018-03-08T08:46:59.584Z,4.70
2018-03-08T08:49:28.744Z,4.70
2018-03-08T08:51:57.148Z,4.70
2018-03-08T08:54:25.565Z,4.60
2018-03-08T08:56:54.137Z,4.70
2018-03-08T08:59:22.534Z,4.80
2018-03-08T09:01:50.923Z,4.80
2018-03-08T09:04:19.311Z,4.80
2018-03-08T09:06:47.703Z,4.80
2018-03-08T09:09:16.094Z,4.90
2018-03-08T09:11:44.510Z,4.90
2018-03-08T09:14:12.900Z,4.90
2018-03-08T09:16:41.304Z,4.90
2018-03-08T09:19:10.406Z,5.00
2018-03-08T09:21:38.807Z,4.90
2018-03-08T09:24:08.669Z,5.00
2018-03-08T09:26:37.070Z,5.00
2018-03-08T09:29:05.499Z,5.10
2018-03-08T09:31:33.879Z,5.10
2018-03-08T09:34:02.268Z,5.10
2018-03-08T09:36:30.678Z,5.10
2018-03-08T09:38:59.073Z,5.20
2018-03-08T09:41:27.472Z,5.20
2018-03-08T09:43:56.632Z,5.30
2018-03-08T09:46:25.033Z,5.30
2018-03-08T09:48:54.190Z,5.30
2018-03-08T09:51:22.583Z,5.30
2018-03-08T09:53:50.979Z,5.30
2018-03-08T09:56:19.394Z,5.40
2018-03-08T09:58:47.966Z,5.60
2018-03-08T10:01:16.365Z,5.60
2018-03-08T10:03:44.750Z,5.40
2018-03-08T10:06:13.138Z,5.40
2018-03-08T10:08:41.542Z,5.40
2018-03-08T10:11:10.985Z,5.40
2018-03-08T10:13:40.377Z,5.60
2018-03-08T10:16:09.264Z,5.60
2018-03-08T10:18:38.358Z,5.70
2018-03-08T10:21:07.509Z,5.80
2018-03-08T10:23:35.931Z,5.80
2018-03-08T10:26:04.329Z,5.80
2018-03-08T10:28:32.721Z,5.80
2018-03-08T10:31:01.137Z,5.70
2018-03-08T10:33:29.538Z,5.60
2018-03-08T10:35:58.695Z,5.80
2018-03-08T10:38:27.110Z,5.80
2018-03-08T10:40:56.276Z,5.90
2018-03-08T10:43:24.881Z,5.80
2018-03-08T10:45:53.454Z,6.00
2018-03-08T10:48:22.633Z,6.20
2018-03-08T10:50:51.042Z,6.20
2018-03-08T10:53:20.196Z,6.40
2018-03-08T10:55:48.593Z,6.40
2018-03-08T10:58:16.984Z,6.40
2018-03-08T11:00:46.883Z,6.20
2018-03-08T11:03:15.091Z,6.20
2018-03-08T11:05:47.102Z,6.30
2018-03-08T11:08:15.495Z,6.20
2018-03-08T11:10:43.889Z,6.20
2018-03-08T11:13:13.048Z,6.10
2018-03-08T11:15:41.454Z,6.10
2018-03-08T11:18:10.287Z,6.20
2018-03-08T11:20:39.619Z,6.20
2018-03-08T11:23:09.371Z,6.20
2018-03-08T11:25:37.764Z,6.20
2018-03-08T11:28:06.152Z,6.20
2018-03-08T11:30:34.553Z,6.20
2018-03-08T11:33:02.967Z,6.30
2018-03-08T11:35:32.118Z,6.20
2018-03-08T11:38:00.510Z,6.10
2018-03-08T11:40:28.923Z,6.20
2018-03-08T11:42:58.079Z,6.20
2018-03-08T11:45:26.494Z,6.20
2018-03-08T11:47:55.650Z,6.60
2018-03-08T11:50:24.071Z,6.50
2018-03-08T11:52:54.203Z,6.50
2018-03-08T11:55:22.609Z,6.50
2018-03-08T11:57:50.996Z,6.60
2018-03-08T12:00:19.406Z,6.60
2018-03-08T12:02:48.743Z,6.70
2018-03-08T12:05:17.149Z,6.80
2018-03-08T12:07:45.566Z,6.80
2018-03-08T12:10:13.975Z,6.80
2018-03-08T12:12:42.374Z,6.70
2018-03-08T12:15:10.792Z,6.70
2018-03-08T12:17:39.677Z,6.50
2018-03-08T12:20:08.089Z,6.40
2018-03-08T12:22:37.260Z,6.40
2018-03-08T12:25:05.660Z,6.40
2018-03-08T12:27:34.827Z,6.30
2018-03-08T12:30:03.244Z,6.30
2018-03-08T12:32:31.632Z,6.30
2018-03-08T12:35:00.021Z,6.10
2018-03-08T12:37:28.439Z,6.10
2018-03-08T12:39:56.843Z,6.10
2018-03-08T12:42:25.999Z,6.40
2018-03-08T12:44:54.402Z,6.40
2018-03-08T12:47:23.576Z,6.60
2018-03-08T12:49:51.969Z,6.60
2018-03-08T12:52:20.396Z,6.80
2018-03-08T12:54:48.798Z,6.80
2018-03-08T12:57:17.214Z,6.80
2018-03-08T12:59:45.800Z,6.90
2018-03-08T13:02:14.955Z,6.90
2018-03-08T13:04:43.367Z,6.90
2018-03-08T13:07:12.516Z,7.10
2018-03-08T13:09:41.165Z,7.10
2018-03-08T13:12:09.612Z,7.10
2018-03-08T13:14:37.991Z,7.30
2018-03-08T13:17:06.392Z,7.30
2018-03-08T13:19:35.586Z,7.50
2018-03-08T13:22:04.157Z,7.60
2018-03-08T13:24:33.315Z,7.50
2018-03-08T13:27:02.481Z,7.50
2018-03-08T13:29:30.861Z,7.50
2018-03-08T13:31:59.262Z,7.50
2018-03-08T13:34:27.648Z,7.50
2018-03-08T13:36:56.063Z,7.50
2018-03-08T13:39:25.218Z,7.60
2018-03-08T13:41:53.448Z,7.60
2018-03-08T13:44:21.833Z,7.70
2018-03-08T13:46:50.237Z,7.80
2018-03-08T13:49:29.813Z,7.90
2018-03-08T13:51:58.208Z,8.00
2018-03-08T13:54:27.356Z,8.20
2018-03-08T13:56:55.786Z,8.10
2018-03-08T13:59:24.950Z,8.30
2018-03-08T14:01:53.359Z,8.20
2018-03-08T14:04:22.543Z,8.50
2018-03-08T14:06:51.710Z,8.60
2018-03-08T14:09:20.100Z,8.60
2018-03-08T14:11:48.505Z,8.70
2018-03-08T14:14:17.683Z,8.70
2018-03-08T14:16:45.910Z,8.70
2018-03-08T14:19:14.322Z,8.70
2018-03-08T14:21:42.711Z,8.60
2018-03-08T14:24:12.049Z,8.60
2018-03-08T14:26:41.467Z,8.50
2018-03-08T14:29:10.911Z,8.50
2018-03-08T14:31:40.370Z,8.50
2018-03-08T14:34:09.271Z,8.40
2018-03-08T14:36:37.672Z,8.30
2018-03-08T14:39:05.412Z,8.20
2018-03-08T14:41:33.813Z,8.20
2018-03-08T14:44:02.212Z,8.10
2018-03-08T14:46:31.360Z,8.20
2018-03-08T14:48:59.948Z,8.10
2018-03-08T14:51:29.106Z,8.20
2018-03-08T14:53:57.519Z,8.20
2018-03-08T14:56:25.917Z,8.20
2018-03-08T14:58:54.327Z,8.30
2018-03-08T15:01:22.824Z,8.30
2018-03-08T16:25:50.134Z,8.40
2018-03-08T16:28:19.291Z,7.20
2018-03-08T16:30:47.709Z,7.20
2018-03-08T16:33:16.862Z,7.20
2018-03-08T16:35:45.249Z,7.20
2018-03-08T16:38:13.681Z,7.20
2018-03-08T16:40:41.887Z,7.20
2018-03-08T16:43:10.292Z,7.10
2018-03-08T16:45:38.704Z,7.10
2018-03-08T16:48:07.852Z,7.10
2018-03-08T16:50:36.983Z,7.00
2018-03-08T16:53:06.896Z,7.00
2018-03-08T16:55:36.961Z,6.90
2018-03-08T16:58:05.988Z,6.90
2018-03-08T17:00:34.895Z,6.90
2018-03-08T17:03:04.716Z,6.80
2018-03-08T17:05:34.360Z,6.90
2018-03-08T17:08:02.752Z,6.80
2018-03-08T17:10:31.150Z,6.80
2018-03-08T17:12:59.566Z,6.80
2018-03-08T17:15:27.954Z,6.80
2018-03-08T17:17:56.351Z,6.80
2018-03-08T17:20:24.732Z,6.70
2018-03-08T17:22:53.133Z,6.70
2018-03-08T17:25:21.530Z,6.70
2018-03-08T17:27:50.696Z,6.60
2018-03-08T17:30:19.092Z,6.60
2018-03-08T17:32:47.523Z,6.60
2018-03-08T17:35:15.929Z,6.60
2018-03-08T17:37:44.329Z,6.50
2018-03-08T17:40:12.736Z,6.50
2018-03-08T17:42:41.132Z,6.50
2018-03-08T17:45:09.528Z,6.50
2018-03-08T17:47:37.922Z,6.50
2018-03-08T17:50:07.271Z,6.40
2018-03-08T17:52:36.330Z,6.40
2018-03-08T17:55:05.179Z,6.40
2018-03-08T17:57:33.660Z,6.30
2018-03-08T18:00:02.040Z,6.40
2018-03-08T18:02:30.441Z,6.40
2018-03-08T18:04:58.833Z,6.30
2018-03-08T18:07:27.262Z,6.40
2018-03-08T18:09:55.657Z,6.30
2018-03-08T18:12:24.059Z,6.30
2018-03-08T18:14:52.457Z,6.30
2018-03-08T18:17:21.617Z,6.30
2018-03-08T18:19:50.007Z,6.20
2018-03-08T18:22:18.422Z,6.20
2018-03-08T18:24:46.825Z,6.20
2018-03-08T18:27:15.214Z,6.20
2018-03-08T18:29:43.420Z,6.20
2018-03-08T18:32:11.886Z,6.20
2018-03-08T18:34:40.278Z,6.20
2018-03-08T18:37:08.682Z,6.10
2018-03-08T18:39:37.083Z,6.10
2018-03-08T18:42:07.393Z,6.10
2018-03-08T18:44:35.799Z,6.00
2018-03-08T18:47:04.918Z,5.90
2018-03-08T18:49:33.627Z,5.90
2018-03-08T18:52:02.786Z,6.00
2018-03-08T18:54:31.193Z,6.00
2018-03-08T18:57:00.350Z,6.00
2018-03-08T18:59:28.754Z,6.00
2018-03-08T19:01:57.145Z,5.90
2018-03-08T19:04:25.986Z,5.90
2018-03-08T19:06:54.374Z,5.90
2018-03-08T19:09:22.791Z,5.80
2018-03-08T19:11:51.951Z,5.90
2018-03-08T19:14:20.371Z,5.80
2018-03-08T19:16:49.542Z,5.90
2018-03-08T19:19:17.923Z,5.90
2018-03-08T19:21:46.323Z,5.80
2018-03-08T19:24:15.464Z,5.80
2018-03-08T19:26:43.872Z,5.80
2018-03-08T19:29:12.248Z,5.90
2018-03-08T19:31:40.450Z,5.80
2018-03-08T19:34:09.635Z,5.70
2018-03-08T19:36:38.823Z,5.60
2018-03-08T19:39:07.388Z,5.60
2018-03-08T19:41:36.270Z,5.60
2018-03-08T19:44:04.997Z,5.60
2018-03-08T19:46:33.793Z,5.60
2018-03-08T19:49:02.193Z,5.60
2018-03-08T19:51:30.582Z,5.60
2018-03-08T19:53:58.982Z,5.50
2018-03-08T19:56:27.393Z,5.60
2018-03-08T19:58:55.782Z,5.60
2018-03-08T20:01:24.208Z,5.60
2018-03-08T20:03:52.789Z,5.50
2018-03-08T20:06:21.172Z,5.40
2018-03-08T20:08:49.563Z,5.40
2018-03-08T20:11:17.955Z,5.30
2018-03-08T20:13:47.132Z,5.30
2018-03-08T20:16:15.522Z,5.30
2018-03-08T20:18:44.702Z,5.30
2018-03-08T20:21:13.108Z,5.30
2018-03-08T20:23:41.522Z,5.30
2018-03-08T20:26:09.946Z,5.20
2018-03-08T20:28:38.476Z,5.20
2018-03-08T20:31:06.872Z,5.20
2018-03-08T20:33:35.259Z,5.20
2018-03-08T20:36:03.761Z,5.10
2018-03-08T20:38:32.918Z,5.10
2018-03-08T20:41:01.325Z,5.10
2018-03-08T20:43:29.727Z,5.10
2018-03-08T20:45:58.886Z,4.90
2018-03-08T20:48:27.280Z,4.90
2018-03-08T20:50:55.675Z,4.90
2018-03-08T20:53:24.834Z,5.00
2018-03-08T20:55:53.243Z,5.00
2018-03-08T20:58:22.441Z,5.00
2018-03-08T21:00:51.606Z,5.10
2018-03-08T21:03:20.004Z,5.10
2018-03-08T21:05:48.425Z,5.00
2018-03-08T21:08:16.843Z,5.10
2018-03-08T21:10:45.255Z,5.10
2018-03-08T21:13:14.417Z,5.10
2018-03-08T21:15:42.817Z,5.10
2018-03-08T21:18:11.981Z,5.20
2018-03-08T21:20:40.379Z,5.10
2018-03-08T21:23:08.769Z,5.10
2018-03-08T21:25:37.944Z,5.10
2018-03-08T21:28:07.041Z,5.00
2018-03-08T21:30:36.037Z,5.10
2018-03-08T21:33:04.488Z,5.10
2018-03-08T21:35:32.885Z,5.10
2018-03-08T21:38:01.304Z,5.10
2018-03-08T21:40:29.701Z,5.20
2018-03-08T21:42:58.114Z,5.20
2018-03-08T21:45:26.495Z,5.10
2018-03-08T21:47:54.905Z,5.10
2018-03-08T21:50:24.057Z,5.10
2018-03-08T21:52:52.447Z,5.10
2018-03-08T21:55:20.890Z,5.20
2018-03-08T21:57:49.284Z,5.20
2018-03-08T22:00:17.688Z,5.20
2018-03-08T22:02:47.672Z,5.20
2018-03-08T22:05:16.080Z,5.20
2018-03-08T22:07:44.474Z,5.20
2018-03-08T22:10:13.643Z,5.30
2018-03-08T22:12:42.070Z,5.20
2018-03-08T22:15:10.469Z,5.30
2018-03-08T22:17:38.889Z,5.20
2018-03-08T22:20:07.274Z,5.20
2018-03-08T22:22:37.015Z,5.20
2018-03-08T22:25:05.861Z,5.30
2018-03-08T22:27:35.349Z,5.30
2018-03-08T22:30:03.412Z,5.30
2018-03-08T22:32:31.805Z,5.30
2018-03-08T22:35:00.225Z,5.30
2018-03-08T22:37:28.609Z,5.30
2018-03-08T22:39:57.043Z,5.30
2018-03-08T22:42:25.436Z,5.40
2018-03-08T22:44:54.009Z,5.50
2018-03-08T22:47:22.419Z,5.50
2018-03-08T22:49:50.813Z,5.50
2018-03-08T22:52:19.212Z,5.50
2018-03-08T22:54:47.611Z,5.50
2018-03-08T22:57:16.020Z,5.50
2018-03-08T22:59:44.433Z,5.50
2018-03-08T23:02:11.979Z,5.50
2018-03-08T23:04:40.399Z,5.50
2018-03-08T23:07:08.787Z,5.50
2018-03-08T23:09:37.202Z,5.50
2018-03-08T23:12:06.448Z,5.50
2018-03-08T23:14:34.841Z,5.40
2018-03-08T23:17:03.249Z,5.30
2018-03-08T23:19:31.862Z,5.30
2018-03-08T23:22:00.240Z,5.20
2018-03-08T23:24:28.627Z,5.20
2018-03-08T23:26:57.017Z,5.10
2018-03-08T23:29:25.442Z,5.00
2018-03-08T23:31:53.832Z,5.10
2018-03-08T23:34:22.232Z,5.00
2018-03-08T23:36:50.618Z,4.90
2018-03-08T23:39:19.016Z,4.90
2018-03-08T23:41:47.227Z,4.90
2018-03-08T23:44:15.625Z,4.90
2018-03-08T23:46:44.003Z,4.80
2018-03-08T23:49:12.396Z,4.70
2018-03-08T23:51:40.814Z,4.70
2018-03-08T23:54:09.991Z,4.50
2018-03-08T23:56:38.404Z,4.50
2018-03-08T23:59:06.792Z,4.60
